createdAt,value
2023-03-29T00:00:51.739Z,2.30
2023-03-29T00:03:18.311Z,2.47
2023-03-29T00:05:44.920Z,2.50
2023-03-29T00:08:14.624Z,2.88
2023-03-29T00:10:42.382Z,2.55
2023-03-29T00:13:08.879Z,2.60
2023-03-29T00:15:35.682Z,2.72
2023-03-29T00:18:02.291Z,2.47
2023-03-29T00:20:29.025Z,2.67
2023-03-29T00:22:55.763Z,2.30
2023-03-29T00:25:22.339Z,2.10
2023-03-29T00:27:48.816Z,2.05
2023-03-29T00:30:15.954Z,1.77
2023-03-29T00:32:42.926Z,1.35
2023-03-29T00:35:09.912Z,1.15
2023-03-29T00:37:36.996Z,1.65
2023-03-29T00:40:23.711Z,0.90
2023-03-29T00:42:50.138Z,1.20
2023-03-29T00:45:21.100Z,1.00
2023-03-29T00:47:57.138Z,1.00
2023-03-29T00:50:29.774Z,0.70
2023-03-29T00:52:59.351Z,0.70
2023-03-29T00:57:53.676Z,0.70
2023-03-29T01:00:22.738Z,0.77
2023-03-29T01:02:54.472Z,0.73
2023-03-29T01:05:27.089Z,0.70
2023-03-29T01:08:02.982Z,0.80
2023-03-29T01:10:38.268Z,0.70
2023-03-29T01:13:09.433Z,1.05
2023-03-29T01:15:37.002Z,0.70
2023-03-29T01:18:03.541Z,0.63
2023-03-29T01:20:43.604Z,0.90
2023-03-29T01:23:14.112Z,0.73
2023-03-29T01:25:49.000Z,0.80
2023-03-29T01:28:17.942Z,0.90
2023-03-29T01:30:53.283Z,1.00
2023-03-29T01:33:28.246Z,0.82
2023-03-29T01:36:14.805Z,0.73
2023-03-29T01:38:48.523Z,0.68
2023-03-29T01:41:15.310Z,0.80
2023-03-29T01:43:44.778Z,0.82
2023-03-29T01:48:47.548Z,0.80
2023-03-29T01:51:37.087Z,0.98
2023-03-29T01:54:06.516Z,0.70
2023-03-29T01:56:36.875Z,0.60
2023-03-29T01:59:05.946Z,1.15
2023-03-29T02:01:38.451Z,0.60
2023-03-29T02:04:06.909Z,0.70
2023-03-29T02:06:34.136Z,0.70
2023-03-29T02:09:00.719Z,0.82
2023-03-29T02:11:29.423Z,0.80
2023-03-29T02:13:59.041Z,0.88
2023-03-29T02:18:53.073Z,0.73
2023-03-29T02:21:32.643Z,0.60
2023-03-29T02:26:26.270Z,0.57
2023-03-29T02:28:53.443Z,0.85
2023-03-29T02:31:32.227Z,0.40
2023-03-29T02:34:04.550Z,0.63
2023-03-29T02:36:33.948Z,0.70
2023-03-29T02:39:01.966Z,0.50
2023-03-29T02:41:28.764Z,0.80
2023-03-29T02:43:56.775Z,0.60
2023-03-29T02:46:24.000Z,0.90
2023-03-29T02:48:51.767Z,0.40
2023-03-29T02:51:23.806Z,0.80
2023-03-29T02:53:56.632Z,0.93
2023-03-29T02:56:23.107Z,0.80
2023-03-29T02:58:49.600Z,0.70
2023-03-29T03:01:17.862Z,0.68
2023-03-29T03:03:45.218Z,0.77
2023-03-29T03:06:12.417Z,0.60
2023-03-29T03:08:39.010Z,0.65
2023-03-29T03:11:06.018Z,0.80
2023-03-29T03:13:32.470Z,0.63
2023-03-29T03:15:58.970Z,0.65
2023-03-29T03:18:25.468Z,0.82
2023-03-29T03:20:59.414Z,0.80
2023-03-29T03:23:26.183Z,1.27
2023-03-29T03:25:52.917Z,0.90
2023-03-29T03:28:22.079Z,0.75
2023-03-29T03:30:49.612Z,0.80
2023-03-29T03:33:16.864Z,0.80
2023-03-29T03:35:46.493Z,0.88
2023-03-29T03:38:13.047Z,0.70
2023-03-29T03:40:39.450Z,0.70
2023-03-29T03:43:06.820Z,1.40
2023-03-29T03:45:33.220Z,0.88
2023-03-29T03:47:59.701Z,1.02
2023-03-29T03:50:26.168Z,1.02
2023-03-29T03:52:52.620Z,1.33
2023-03-29T03:55:19.034Z,1.10
2023-03-29T03:57:45.476Z,1.00
2023-03-29T04:00:19.434Z,0.95
2023-03-29T04:02:47.299Z,1.30
2023-03-29T04:05:14.538Z,1.27
2023-03-29T04:07:41.361Z,1.15
2023-03-29T04:10:09.231Z,1.10
2023-03-29T04:12:35.920Z,1.13
2023-03-29T04:15:02.380Z,1.90
2023-03-29T04:17:29.063Z,1.52
2023-03-29T04:19:56.395Z,1.38
2023-03-29T04:22:22.949Z,1.52
2023-03-29T04:24:49.400Z,1.63
2023-03-29T04:27:15.795Z,1.55
2023-03-29T04:29:44.834Z,1.67
2023-03-29T04:32:11.836Z,1.65
2023-03-29T04:34:38.173Z,1.80
2023-03-29T04:37:10.638Z,1.83
2023-03-29T04:39:37.478Z,2.13
2023-03-29T04:42:05.176Z,1.45
2023-03-29T04:44:35.082Z,2.20
2023-03-29T04:47:01.677Z,2.10
2023-03-29T04:49:29.052Z,3.10
2023-03-29T04:51:55.577Z,1.95
2023-03-29T04:54:22.169Z,2.35
2023-03-29T04:56:48.566Z,2.67
2023-03-29T04:59:14.957Z,2.72
2023-03-29T05:01:41.661Z,3.78
2023-03-29T05:04:09.275Z,3.75
2023-03-29T05:06:37.255Z,3.75
2023-03-29T05:09:04.930Z,3.47
2023-03-29T05:11:31.822Z,4.47
2023-03-29T05:14:02.383Z,4.07
2023-03-29T05:16:30.255Z,4.10
2023-03-29T05:18:57.115Z,4.28
2023-03-29T05:21:24.108Z,3.55
2023-03-29T05:23:50.989Z,3.08
2023-03-29T05:26:17.464Z,3.30
2023-03-29T05:28:43.956Z,3.20
2023-03-29T05:31:10.398Z,4.00
2023-03-29T05:33:36.858Z,3.67
2023-03-29T05:36:08.523Z,3.53
2023-03-29T05:38:35.091Z,4.63
2023-03-29T05:41:01.901Z,3.92
2023-03-29T05:43:28.580Z,3.42
2023-03-29T05:45:55.679Z,4.78
2023-03-29T05:48:28.187Z,4.07
2023-03-29T05:50:55.611Z,4.07
2023-03-29T05:53:23.529Z,3.72
2023-03-29T05:55:50.123Z,4.40
2023-03-29T05:58:18.083Z,3.58
2023-03-29T06:00:45.136Z,4.43
2023-03-29T06:03:21.348Z,4.10
2023-03-29T06:05:55.040Z,4.28
2023-03-29T06:08:22.298Z,4.05
2023-03-29T06:10:49.178Z,4.40
2023-03-29T06:13:16.146Z,4.63
2023-03-29T06:15:42.507Z,3.95
2023-03-29T06:18:10.049Z,4.15
2023-03-29T06:20:36.701Z,4.53
2023-03-29T06:23:03.140Z,4.38
2023-03-29T06:25:30.029Z,4.72
2023-03-29T06:27:56.494Z,4.68
2023-03-29T06:30:23.372Z,5.20
2023-03-29T06:32:50.478Z,4.95
2023-03-29T06:35:17.575Z,4.40
2023-03-29T06:37:49.558Z,5.53
2023-03-29T06:40:17.686Z,4.60
2023-03-29T06:42:45.121Z,4.50
2023-03-29T06:45:11.738Z,5.07
2023-03-29T06:47:38.312Z,4.55
2023-03-29T06:50:04.978Z,4.70
2023-03-29T06:52:31.576Z,5.00
2023-03-29T06:54:58.080Z,4.13
2023-03-29T06:57:25.253Z,4.20
2023-03-29T06:59:51.812Z,3.92
2023-03-29T07:02:18.179Z,4.70
2023-03-29T07:04:44.667Z,4.50
2023-03-29T07:07:20.134Z,4.47
2023-03-29T07:09:54.424Z,4.70
2023-03-29T07:12:22.458Z,5.10
2023-03-29T07:14:48.894Z,4.50
2023-03-29T07:17:19.999Z,5.05
2023-03-29T07:19:46.854Z,4.65
2023-03-29T07:22:14.107Z,5.38
2023-03-29T07:24:40.612Z,4.72
2023-03-29T07:27:07.336Z,5.95
2023-03-29T07:29:33.966Z,5.55
2023-03-29T07:32:00.388Z,6.03
2023-03-29T07:34:27.248Z,6.60
2023-03-29T07:36:54.607Z,6.72
2023-03-29T07:39:22.356Z,6.30
2023-03-29T07:41:48.865Z,6.35
2023-03-29T07:44:18.341Z,6.15
2023-03-29T07:49:11.310Z,5.90
2023-03-29T07:51:38.293Z,5.90
2023-03-29T07:54:06.408Z,5.47
2023-03-29T07:56:32.917Z,6.13
2023-03-29T07:58:59.358Z,6.13
2023-03-29T08:01:25.979Z,5.78
2023-03-29T08:03:52.583Z,5.93
2023-03-29T08:06:19.144Z,5.35
2023-03-29T08:08:46.226Z,5.88
2023-03-29T08:11:12.665Z,5.43
2023-03-29T08:13:39.113Z,5.85
2023-03-29T08:16:05.915Z,5.40
2023-03-29T08:18:34.660Z,5.32
2023-03-29T08:21:01.550Z,5.07
2023-03-29T08:23:28.128Z,5.10
2023-03-29T08:25:54.686Z,4.57
2023-03-29T08:28:21.161Z,4.57
2023-03-29T08:30:48.192Z,4.57
2023-03-29T08:33:15.097Z,5.00
2023-03-29T08:35:41.658Z,4.68
2023-03-29T08:38:08.650Z,5.03
2023-03-29T08:40:35.365Z,4.82
2023-03-29T08:43:02.031Z,5.10
2023-03-29T08:45:49.692Z,4.78
2023-03-29T08:48:24.515Z,5.18
2023-03-29T08:50:52.949Z,5.65
2023-03-29T08:53:25.262Z,5.55
2023-03-29T08:55:52.936Z,5.53
2023-03-29T08:58:21.100Z,5.13
2023-03-29T09:00:49.543Z,5.85
2023-03-29T09:03:22.509Z,5.53
2023-03-29T09:05:51.360Z,5.13
2023-03-29T09:08:19.269Z,5.70
2023-03-29T09:10:47.877Z,6.00
2023-03-29T09:13:33.343Z,6.43
2023-03-29T09:16:01.261Z,6.30
2023-03-29T09:18:54.102Z,6.22
2023-03-29T09:21:31.402Z,6.38
2023-03-29T09:24:00.608Z,6.28
2023-03-29T09:26:28.287Z,6.50
2023-03-29T09:29:01.867Z,7.35
2023-03-29T09:31:35.276Z,7.28
2023-03-29T09:34:04.808Z,7.22
2023-03-29T09:38:58.121Z,6.90
2023-03-29T09:41:27.717Z,7.78
2023-03-29T09:43:55.730Z,6.43
2023-03-29T09:46:22.920Z,7.00
2023-03-29T09:48:50.609Z,6.63
2023-03-29T09:51:17.781Z,6.78
2023-03-29T09:53:44.272Z,7.03
2023-03-29T09:56:10.961Z,7.10
2023-03-29T09:58:37.522Z,6.18
2023-03-29T10:01:06.363Z,7.13
2023-03-29T10:03:34.931Z,6.18
2023-03-29T10:06:03.084Z,6.43
2023-03-29T10:08:50.105Z,5.65
2023-03-29T10:11:37.127Z,6.55
2023-03-29T10:14:04.955Z,6.47
2023-03-29T10:16:36.659Z,6.95
2023-03-29T10:19:15.311Z,6.72
2023-03-29T10:21:42.397Z,5.97
2023-03-29T10:24:09.448Z,6.13
2023-03-29T10:26:37.197Z,6.03
2023-03-29T10:29:04.561Z,6.53
2023-03-29T10:31:34.082Z,6.95
2023-03-29T10:34:05.080Z,5.97
2023-03-29T10:36:31.756Z,6.07
2023-03-29T10:38:59.570Z,5.50
2023-03-29T10:41:27.370Z,5.68
2023-03-29T10:43:54.293Z,5.97
2023-03-29T10:46:27.868Z,5.43
2023-03-29T10:49:00.318Z,5.30
2023-03-29T10:51:30.118Z,5.75
2023-03-29T10:53:57.661Z,5.40
2023-03-29T10:56:33.273Z,5.38
2023-03-29T10:59:18.837Z,5.20
2023-03-29T11:01:51.696Z,6.03
2023-03-29T11:04:27.412Z,5.22
2023-03-29T11:07:14.100Z,5.93
2023-03-29T11:09:40.483Z,4.78
2023-03-29T11:12:21.091Z,4.97
2023-03-29T11:14:58.565Z,5.47
2023-03-29T11:17:25.001Z,5.32
2023-03-29T11:20:20.812Z,5.60
2023-03-29T11:22:47.870Z,5.43
2023-03-29T11:25:29.069Z,5.93
2023-03-29T11:27:56.504Z,5.00
2023-03-29T11:30:25.926Z,5.70
2023-03-29T11:32:55.578Z,5.82
2023-03-29T11:37:51.278Z,4.53
2023-03-29T11:40:21.267Z,5.47
2023-03-29T11:42:48.970Z,5.43
2023-03-29T11:45:18.792Z,5.40
2023-03-29T11:47:46.699Z,5.18
2023-03-29T11:50:13.476Z,5.97
2023-03-29T11:53:00.183Z,5.60
2023-03-29T11:55:31.748Z,5.32
2023-03-29T11:57:58.255Z,4.70
2023-03-29T12:00:30.062Z,5.57
2023-03-29T12:03:15.385Z,4.20
2023-03-29T12:05:44.250Z,4.70
2023-03-29T12:08:16.616Z,4.45
2023-03-29T12:11:04.713Z,4.15
2023-03-29T12:13:36.778Z,4.40
2023-03-29T12:16:29.517Z,4.60
2023-03-29T12:18:57.447Z,4.50
2023-03-29T12:21:26.201Z,4.68
2023-03-29T12:23:52.768Z,4.70
2023-03-29T12:26:25.628Z,4.15
2023-03-29T12:29:11.018Z,4.63
2023-03-29T12:31:42.528Z,5.10
2023-03-29T12:34:35.032Z,6.28
2023-03-29T12:37:32.227Z,4.80
2023-03-29T12:40:03.341Z,4.60
2023-03-29T12:42:29.727Z,4.45
2023-03-29T12:44:59.710Z,4.30
2023-03-29T12:47:32.395Z,4.38
2023-03-29T12:49:59.785Z,4.53
2023-03-29T12:52:27.160Z,3.97
2023-03-29T12:54:57.873Z,4.65
2023-03-29T12:57:29.068Z,4.90
2023-03-29T12:59:55.690Z,5.22
2023-03-29T13:02:22.320Z,4.60
2023-03-29T13:04:53.188Z,4.75
2023-03-29T13:07:22.808Z,5.00
2023-03-29T13:09:54.079Z,4.10
2023-03-29T13:12:31.436Z,4.85
2023-03-29T13:15:01.465Z,4.20
2023-03-29T13:17:34.647Z,4.18
2023-03-29T13:20:24.040Z,4.03
2023-03-29T13:25:24.741Z,4.40
2023-03-29T13:27:51.232Z,4.10
2023-03-29T13:30:22.852Z,3.97
2023-03-29T13:32:49.709Z,4.38
2023-03-29T13:35:16.191Z,4.57
2023-03-29T13:38:01.485Z,4.43
2023-03-29T13:40:28.394Z,4.20
2023-03-29T13:42:57.177Z,4.35
2023-03-29T13:45:25.510Z,4.30
2023-03-29T13:50:39.602Z,4.10
2023-03-29T13:53:26.217Z,4.18
2023-03-29T13:55:54.528Z,3.83
2023-03-29T13:58:34.197Z,3.90
2023-03-29T14:01:07.486Z,4.10
2023-03-29T14:03:40.060Z,4.25
2023-03-29T14:06:06.950Z,3.80
2023-03-29T14:08:36.665Z,3.72
2023-03-29T14:11:04.645Z,4.47
2023-03-29T14:13:31.627Z,3.72
2023-03-29T14:16:06.910Z,4.60
2023-03-29T14:18:36.802Z,4.60
2023-03-29T14:21:03.911Z,4.10
2023-03-29T14:23:32.334Z,4.68
2023-03-29T14:26:19.294Z,4.00
2023-03-29T14:28:47.273Z,4.15
2023-03-29T14:31:19.866Z,4.30
2023-03-29T14:33:51.648Z,3.80
2023-03-29T14:36:18.138Z,4.22
2023-03-29T14:38:47.214Z,4.25
2023-03-29T14:41:13.815Z,4.10
2023-03-29T14:43:40.819Z,4.55
2023-03-29T14:46:07.855Z,4.97
2023-03-29T14:48:35.688Z,4.82
2023-03-29T14:51:02.224Z,5.35
2023-03-29T14:53:31.894Z,5.70
2023-03-29T14:55:59.237Z,5.10
2023-03-29T14:58:31.809Z,5.13
2023-03-29T15:01:03.630Z,5.00
2023-03-29T15:03:30.089Z,5.70
2023-03-29T15:06:02.541Z,5.00
2023-03-29T15:08:31.751Z,4.78
2023-03-29T15:10:58.504Z,4.78
2023-03-29T15:13:25.777Z,5.57
2023-03-29T15:16:00.833Z,5.40
2023-03-29T15:18:30.406Z,5.35
2023-03-29T15:20:57.083Z,5.70
2023-03-29T15:23:26.636Z,5.50
2023-03-29T15:25:54.994Z,6.28
2023-03-29T15:28:24.217Z,6.20
2023-03-29T15:31:06.669Z,5.03
2023-03-29T15:33:36.540Z,5.38
2023-03-29T15:36:04.843Z,6.05
2023-03-29T15:38:42.631Z,4.97
2023-03-29T15:41:11.021Z,4.53
2023-03-29T15:43:37.615Z,4.95
2023-03-29T15:46:04.653Z,4.75
2023-03-29T15:48:33.934Z,4.30
2023-03-29T15:51:04.606Z,4.68
2023-03-29T15:53:32.269Z,4.60
2023-03-29T15:56:00.185Z,4.50
2023-03-29T15:58:27.862Z,4.35
2023-03-29T16:01:16.108Z,4.63
2023-03-29T16:03:46.271Z,4.70
2023-03-29T16:06:14.274Z,4.00
2023-03-29T16:08:41.966Z,5.07
2023-03-29T16:11:09.236Z,4.28
2023-03-29T16:13:35.660Z,4.60
2023-03-29T16:16:02.366Z,4.68
2023-03-29T16:18:29.067Z,4.43
2023-03-29T16:20:56.891Z,4.32
2023-03-29T16:23:23.391Z,4.72
2023-03-29T16:25:49.879Z,4.65
2023-03-29T16:28:16.418Z,4.38
2023-03-29T16:30:43.030Z,4.70
2023-03-29T16:33:09.577Z,4.50
2023-03-29T16:35:38.095Z,4.57
2023-03-29T16:38:04.755Z,4.90
2023-03-29T16:40:31.674Z,4.50
2023-03-29T16:42:58.115Z,4.47
2023-03-29T16:45:24.717Z,4.88
2023-03-29T16:47:51.393Z,4.40
2023-03-29T16:50:18.966Z,4.38
2023-03-29T16:52:47.901Z,4.88
2023-03-29T16:55:15.222Z,4.95
2023-03-29T16:57:42.345Z,4.40
2023-03-29T17:00:16.300Z,4.63
2023-03-29T17:02:43.570Z,4.10
2023-03-29T17:05:10.662Z,4.80
2023-03-29T17:07:37.294Z,4.10
2023-03-29T17:10:07.252Z,4.95
2023-03-29T17:12:34.109Z,4.18
2023-03-29T17:15:00.570Z,4.53
2023-03-29T17:17:27.087Z,4.55
2023-03-29T17:19:55.022Z,4.18
2023-03-29T17:22:21.669Z,4.32
2023-03-29T17:24:48.082Z,5.05
2023-03-29T17:27:14.516Z,4.47
2023-03-29T17:29:40.973Z,5.00
2023-03-29T17:32:07.504Z,5.57
2023-03-29T17:34:34.250Z,4.75
2023-03-29T17:37:01.244Z,4.68
2023-03-29T17:39:27.764Z,5.32
2023-03-29T17:41:54.174Z,5.57
2023-03-29T17:44:20.860Z,5.32
2023-03-29T17:46:47.296Z,5.18
2023-03-29T17:49:14.383Z,5.50
2023-03-29T17:51:41.025Z,5.80
2023-03-29T17:54:07.738Z,5.50
2023-03-29T17:56:34.215Z,5.63
2023-03-29T17:59:00.802Z,6.03
2023-03-29T18:01:27.367Z,6.60
2023-03-29T18:03:53.888Z,6.35
2023-03-29T18:06:21.034Z,6.57
2023-03-29T18:08:47.440Z,6.25
2023-03-29T18:11:22.191Z,6.13
2023-03-29T18:13:49.417Z,7.60
2023-03-29T18:16:16.061Z,6.72
2023-03-29T18:18:43.718Z,8.10
2023-03-29T18:21:10.846Z,6.68
2023-03-29T18:23:39.951Z,6.85
2023-03-29T18:26:07.572Z,6.82
2023-03-29T18:28:34.969Z,7.90
2023-03-29T18:31:01.403Z,8.25
2023-03-29T18:33:30.220Z,7.85
2023-03-29T18:35:56.651Z,7.60
2023-03-29T18:38:23.094Z,7.45
2023-03-29T18:40:50.071Z,8.00
2023-03-29T18:43:16.651Z,8.23
2023-03-29T18:45:44.096Z,8.85
2023-03-29T18:48:11.131Z,9.10
2023-03-29T18:50:38.877Z,8.90
2023-03-29T18:53:05.345Z,9.25
2023-03-29T18:55:31.857Z,8.60
2023-03-29T18:57:58.309Z,9.15
2023-03-29T19:00:25.162Z,8.82
2023-03-29T19:02:51.733Z,8.95
2023-03-29T19:05:18.286Z,10.68
2023-03-29T19:07:44.728Z,8.93
2023-03-29T19:10:12.214Z,9.27
2023-03-29T19:12:38.811Z,10.38
2023-03-29T19:15:05.551Z,10.27
2023-03-29T19:17:32.218Z,10.50
2023-03-29T19:19:58.946Z,9.38
2023-03-29T19:22:25.389Z,11.40
2023-03-29T19:24:51.917Z,10.30
2023-03-29T19:27:18.638Z,10.30
2023-03-29T19:29:46.171Z,11.45
2023-03-29T19:32:12.687Z,10.13
2023-03-29T19:34:39.149Z,10.57
2023-03-29T19:37:05.877Z,9.82
2023-03-29T19:39:32.781Z,10.70
2023-03-29T19:41:59.281Z,11.57
2023-03-29T19:44:25.850Z,10.57
2023-03-29T19:46:52.489Z,11.15
2023-03-29T19:49:19.120Z,11.75
2023-03-29T19:51:45.590Z,11.80
2023-03-29T19:54:17.411Z,10.55
2023-03-29T19:56:44.204Z,10.40
2023-03-29T19:59:17.724Z,11.63
2023-03-29T20:01:51.184Z,11.02
2023-03-29T20:04:22.825Z,11.13
2023-03-29T20:06:49.407Z,11.55
2023-03-29T20:09:16.218Z,11.50
2023-03-29T20:11:44.427Z,11.55
2023-03-29T20:14:11.372Z,12.45
2023-03-29T20:16:37.947Z,12.38
2023-03-29T20:19:05.283Z,11.75
2023-03-29T20:21:33.624Z,11.20
2023-03-29T20:24:00.391Z,11.57
2023-03-29T20:26:28.049Z,11.70
2023-03-29T20:28:54.526Z,12.35
2023-03-29T20:31:21.169Z,11.70
2023-03-29T20:33:47.670Z,12.02
2023-03-29T20:36:18.520Z,11.68
2023-03-29T20:38:45.254Z,11.85
2023-03-29T20:41:11.802Z,11.50
2023-03-29T20:43:38.380Z,11.70
2023-03-29T20:46:05.666Z,13.75
2023-03-29T20:48:32.248Z,13.65
2023-03-29T20:50:58.739Z,13.77
2023-03-29T20:53:25.855Z,14.52
2023-03-29T20:55:52.410Z,14.07
2023-03-29T20:58:18.841Z,12.95
2023-03-29T21:00:46.838Z,14.85
2023-03-29T21:03:13.625Z,13.95
2023-03-29T21:05:40.152Z,13.70
2023-03-29T21:08:06.614Z,13.43
2023-03-29T21:10:33.350Z,13.55
2023-03-29T21:13:00.455Z,13.45
2023-03-29T21:15:28.663Z,13.05
2023-03-29T21:17:55.261Z,12.77
2023-03-29T21:20:24.231Z,14.35
2023-03-29T21:22:51.052Z,12.88
2023-03-29T21:25:17.561Z,15.27
2023-03-29T21:27:44.048Z,14.55
2023-03-29T21:30:10.917Z,15.45
2023-03-29T21:32:37.417Z,14.57
2023-03-29T21:35:03.991Z,14.85
2023-03-29T21:37:30.448Z,14.00
2023-03-29T21:39:56.864Z,14.63
2023-03-29T21:42:23.376Z,13.77
2023-03-29T21:44:49.848Z,13.63
2023-03-29T21:47:16.370Z,13.63
2023-03-29T21:49:42.822Z,14.48
2023-03-29T21:52:09.229Z,13.82
2023-03-29T21:54:36.129Z,13.02
2023-03-29T21:57:02.568Z,13.75
2023-03-29T21:59:29.024Z,12.68
2023-03-29T22:01:55.874Z,12.95
2023-03-29T22:04:35.315Z,13.23
2023-03-29T22:07:04.054Z,12.07
2023-03-29T22:09:32.085Z,12.98
2023-03-29T22:11:59.941Z,12.95
2023-03-29T22:14:28.588Z,11.40
2023-03-29T22:16:55.236Z,12.23
2023-03-29T22:19:21.821Z,12.50
2023-03-29T22:21:48.835Z,11.98
2023-03-29T22:24:16.523Z,12.80
2023-03-29T22:26:44.959Z,13.20
2023-03-29T22:29:11.581Z,11.18
2023-03-29T22:31:39.450Z,12.25
2023-03-29T22:34:06.294Z,11.63
2023-03-29T22:36:33.180Z,12.75
2023-03-29T22:38:59.657Z,12.23
2023-03-29T22:41:27.776Z,13.07
2023-03-29T22:43:55.474Z,13.68
2023-03-29T22:46:22.424Z,12.10
2023-03-29T22:48:48.974Z,12.43
2023-03-29T22:51:16.230Z,12.90
2023-03-29T22:53:42.723Z,12.23
2023-03-29T22:56:09.455Z,12.63
2023-03-29T22:58:36.955Z,12.75
2023-03-29T23:01:03.886Z,12.90
2023-03-29T23:03:31.044Z,12.25
2023-03-29T23:05:58.353Z,12.65
2023-03-29T23:08:25.384Z,11.77
2023-03-29T23:10:52.332Z,12.32
2023-03-29T23:13:26.038Z,12.93
2023-03-29T23:15:57.057Z,12.38
2023-03-29T23:18:23.741Z,11.35
2023-03-29T23:20:51.492Z,13.38
2023-03-29T23:23:19.079Z,11.70
2023-03-29T23:25:49.344Z,11.32
2023-03-29T23:28:17.030Z,12.05
2023-03-29T23:30:43.573Z,11.73
2023-03-29T23:33:10.554Z,11.15
2023-03-29T23:35:37.501Z,10.98
2023-03-29T23:38:05.577Z,11.02
2023-03-29T23:40:33.235Z,10.65
2023-03-29T23:42:59.874Z,10.23
2023-03-29T23:45:29.414Z,11.35
2023-03-29T23:50:23.973Z,9.95
2023-03-29T23:52:51.619Z,9.15
2023-03-29T23:55:18.596Z,10.60
2023-03-29T23:57:45.101Z,10.77
